Time;durP1;ratioP1;P1;durP2;ratioP2;P2;SDS_P1;SDS_P2;PMS_P1;PMS_P2;Temp;Humidity;BMP_temperature;BMP_pressure;BME280_temperature;BME280_humidity;BME280_pressure;Samples;Min_cycle;Max_cycle;Signal;HPM_P1;HPM_P2
2021/09/08 00:02:22;;;;;;;;;;;;;;;20.20;58.11;101966.97;4970752;28;99318;-74
2021/09/08 00:04:48;;;;;;;;;;;;;;;20.08;58.45;101956.94;4971507;28;97835;-73
2021/09/08 00:07:14;;;;;;;;;;;;;;;20.11;58.63;101959.44;4971980;28;96943;-73
2021/09/08 00:09:41;;;;;;;;;;;;;;;20.09;58.34;101950.59;4969558;28;98878;-73
2021/09/08 00:12:07;;;;;;;;;;;;;;;20.08;58.41;101956.06;4972912;28;98849;-73
2021/09/08 00:14:34;;;;;;;;;;;;;;;19.98;58.67;101954.84;4969718;28;99331;-73
2021/09/08 00:17:00;;;;;;;;;;;;;;;20.01;58.82;101950.19;4973659;28;96905;-73
2021/09/08 00:19:28;;;;;;;;;;;;;;;19.93;58.52;101941.69;4969987;28;97302;-73
2021/09/08 00:21:54;;;;;;;;;;;;;;;19.90;58.21;101949.91;4966731;28;98851;-73
2021/09/08 00:24:20;;;;;;;;;;;;;;;19.93;58.45;101940.81;4970599;28;99112;-73
2021/09/08 00:26:47;;;;;;;;;;;;;;;20.00;57.96;101948.44;4964848;28;98839;-72
2021/09/08 00:29:13;;;;;;;;;;;;;;;19.98;58.20;101944.97;4968551;28;96872;-73
2021/09/08 00:31:39;;;;;;;;;;;;;;;20.00;58.55;101948.44;4968806;28;98886;-73
2021/09/08 00:34:05;;;;;;;;;;;;;;;20.04;58.07;101943.75;4971351;28;98818;-73
2021/09/08 00:36:33;;;;;;;;;;;;;;;20.05;58.20;101945.50;4973905;28;96980;-72
2021/09/08 00:38:59;;;;;;;;;;;;;;;20.02;58.20;101948.38;4971331;28;96946;-73
2021/09/08 00:41:29;;;;;;;;;;;;;;;20.01;58.08;101955.56;4971743;28;99324;-73
2021/09/08 00:43:56;;;;;;;;;;;;;;;19.80;58.88;101954.03;4970589;28;99229;-73
2021/09/08 00:46:22;;;;;;;;;;;;;;;19.80;58.82;101940.63;4972681;28;97318;-73
2021/09/08 00:48:48;;;;;;;;;;;;;;;19.85;58.44;101942.09;4973223;28;96963;-72
2021/09/08 00:51:14;;;;;;;;;;;;;;;19.81;58.54;101956.66;4967743;28;98884;-72
2021/09/08 00:53:43;;;;;;;;;;;;;;;19.81;58.44;101950.41;4961089;28;98783;-72
2021/09/08 00:56:12;;;;;;;;;;;;;;;19.81;58.38;101947.75;4969415;28;96898;-72
2021/09/08 00:58:38;;;;;;;;;;;;;;;19.88;58.08;101949.13;4969981;28;96898;-72
2021/09/08 01:01:05;;;;;;;;;;;;;;;19.68;58.63;101952.91;4968905;28;99044;-72
2021/09/08 01:03:31;;;;;;;;;;;;;;;19.80;58.13;101951.38;4970223;28;99176;-72
2021/09/08 01:05:57;;;;;;;;;;;;;;;19.74;58.45;101952.56;4970260;28;96924;-73
2021/09/08 01:08:23;;;;;;;;;;;;;;;19.84;58.05;101947.56;4971468;28;96802;-72
2021/09/08 01:10:51;;;;;;;;;;;;;;;19.65;58.59;101952.19;4969552;28;98849;-73
2021/09/08 01:13:17;;;;;;;;;;;;;;;19.64;58.87;101945.97;4971474;28;98785;-72
2021/09/08 01:15:54;;;;;;;;;;;;;;;19.56;58.96;101953.53;4970813;28;96999;-73
2021/09/08 01:18:21;;;;;;;;;;;;;;;19.78;58.45;101947.91;4972215;28;96751;-73
2021/09/08 01:20:47;;;;;;;;;;;;;;;19.76;58.37;101947.09;4965966;28;99384;-72
2021/09/08 01:23:15;;;;;;;;;;;;;;;19.72;58.35;101945.53;4969777;28;99009;-72
2021/09/08 01:25:41;;;;;;;;;;;;;;;19.65;58.84;101946.81;4970824;28;97909;-72
2021/09/08 01:28:08;;;;;;;;;;;;;;;19.68;58.54;101941.31;4968448;28;99138;-72
2021/09/08 01:30:34;;;;;;;;;;;;;;;19.67;58.47;101939.56;4969876;28;99093;-72
2021/09/08 01:33:01;;;;;;;;;;;;;;;19.65;58.69;101941.47;4970012;28;98858;-73
2021/09/08 01:35:28;;;;;;;;;;;;;;;19.54;59.15;101946.56;4971963;28;96790;-73
2021/09/08 01:37:54;;;;;;;;;;;;;;;19.60;58.83;101946.22;4970812;28;97113;-73
2021/09/08 01:40:22;;;;;;;;;;;;;;;19.59;59.18;101948.03;4972481;28;99132;-72
2021/09/08 01:42:48;;;;;;;;;;;;;;;19.56;59.53;101950.03;4976036;28;98902;-73
2021/09/08 01:45:15;;;;;;;;;;;;;;;19.61;59.52;101947.97;4972250;28;96908;-73
2021/09/08 01:47:41;;;;;;;;;;;;;;;19.50;59.44;101943.16;4975043;28;96826;-73
2021/09/08 01:50:08;;;;;;;;;;;;;;;19.53;59.25;101943.00;4969022;28;99136;-73
2021/09/08 01:52:34;;;;;;;;;;;;;;;19.45;59.37;101946.06;4974979;28;98959;-73
2021/09/08 01:55:00;;;;;;;;;;;;;;;19.48;59.27;101937.03;4971580;28;97136;-73
2021/09/08 01:57:28;;;;;;;;;;;;;;;19.58;59.02;101943.63;4972763;28;97248;-73
2021/09/08 01:59:54;;;;;;;;;;;;;;;19.66;58.19;101937.84;4969353;28;98839;-71
2021/09/08 02:02:21;;;;;;;;;;;;;;;19.62;58.32;101941.66;4971304;28;100596;-74
2021/09/08 02:04:47;;;;;;;;;;;;;;;19.71;58.26;101942.00;4973624;28;96804;-72
2021/09/08 02:07:13;;;;;;;;;;;;;;;19.63;58.57;101933.50;4974179;28;96833;-73
2021/09/08 02:09:39;;;;;;;;;;;;;;;19.62;58.67;101937.16;4972612;28;98975;-73
2021/09/08 02:12:06;;;;;;;;;;;;;;;19.64;58.79;101934.38;4974401;28;98832;-73
2021/09/08 02:14:33;;;;;;;;;;;;;;;19.47;59.08;101937.97;4972567;28;96975;-73
2021/09/08 02:16:59;;;;;;;;;;;;;;;19.52;59.21;101938.59;4975036;28;96800;-73
2021/09/08 02:19:26;;;;;;;;;;;;;;;19.66;58.40;101943.22;4971410;28;99529;-74
2021/09/08 02:21:52;;;;;;;;;;;;;;;19.62;58.64;101941.66;4972822;28;99334;-73
2021/09/08 02:24:19;;;;;;;;;;;;;;;19.49;59.20;101941.44;4975774;28;97198;-73
2021/09/08 02:26:45;;;;;;;;;;;;;;;19.50;59.24;101938.66;4973680;28;96978;-73
2021/09/08 02:29:11;;;;;;;;;;;;;;;19.55;59.18;101943.78;4972992;28;98932;-73
2021/09/08 02:31:39;;;;;;;;;;;;;;;19.58;58.98;101935.56;4972979;28;98823;-73
2021/09/08 02:34:05;;;;;;;;;;;;;;;19.61;58.65;101935.41;4973675;28;96844;-73
2021/09/08 02:36:31;;;;;;;;;;;;;;;19.57;58.58;101939.19;4974629;28;98749;-73
2021/09/08 02:38:58;;;;;;;;;;;;;;;19.46;58.64;101937.09;4972808;28;99268;-73
2021/09/08 02:41:24;;;;;;;;;;;;;;;19.60;58.33;101932.81;4971505;28;98793;-73
2021/09/08 02:43:51;;;;;;;;;;;;;;;19.49;58.94;101941.44;4972801;28;97392;-72
2021/09/08 02:46:17;;;;;;;;;;;;;;;19.44;59.35;101933.59;4972040;28;96941;-73
2021/09/08 02:48:45;;;;;;;;;;;;;;;19.42;59.03;101926.63;4972965;28;99319;-73
2021/09/08 02:51:11;;;;;;;;;;;;;;;19.45;59.14;101929.09;4972540;28;98737;-73
2021/09/08 02:53:37;;;;;;;;;;;;;;;19.48;59.24;101934.34;4971590;28;97807;-73
2021/09/08 02:56:04;;;;;;;;;;;;;;;19.39;59.31;101919.59;4972629;28;96944;-73
2021/09/08 02:58:30;;;;;;;;;;;;;;;19.33;59.18;101919.91;4972091;28;98975;-73
2021/09/08 03:00:57;;;;;;;;;;;;;;;19.39;59.37;101916.91;4969902;28;98333;-73
2021/09/08 03:03:23;;;;;;;;;;;;;;;19.46;59.08;101922.84;4971000;28;97569;-73
2021/09/08 03:05:51;;;;;;;;;;;;;;;19.50;58.66;101914.53;4973895;28;97060;-73
2021/09/08 03:08:18;;;;;;;;;;;;;;;19.43;58.44;101918.47;4973228;28;98033;-73
2021/09/08 03:10:44;;;;;;;;;;;;;;;19.40;58.41;101918.66;4962531;28;99037;-73
2021/09/08 03:13:11;;;;;;;;;;;;;;;19.39;58.53;101922.28;4975591;28;96812;-73
2021/09/08 03:15:38;;;;;;;;;;;;;;;19.42;58.66;101916.75;4968344;28;96939;-73
2021/09/08 03:18:04;;;;;;;;;;;;;;;19.38;58.59;101916.97;4973327;28;99202;-73
2021/09/08 03:20:31;;;;;;;;;;;;;;;19.37;58.89;101915.25;4971793;28;99050;-73
2021/09/08 03:22:58;;;;;;;;;;;;;;;19.35;58.75;101911.81;4972775;28;96905;-72
2021/09/08 03:25:25;;;;;;;;;;;;;;;19.27;59.01;101914.03;4974817;28;96936;-72
2021/09/08 03:27:51;;;;;;;;;;;;;;;19.30;58.91;101916.50;4972421;28;98918;-73
2021/09/08 03:30:17;;;;;;;;;;;;;;;19.37;58.84;101915.25;4970873;28;98752;-73
2021/09/08 03:32:43;;;;;;;;;;;;;;;19.35;58.90;101923.41;4971409;28;97745;-74
2021/09/08 03:35:10;;;;;;;;;;;;;;;19.28;58.96;101921.97;4971708;28;96944;-73
2021/09/08 03:37:37;;;;;;;;;;;;;;;19.27;58.69;101919.38;4950855;28;98635;-73
2021/09/08 03:40:05;;;;;;;;;;;;;;;19.24;58.78;101923.06;4967137;28;99205;-73
2021/09/08 03:42:32;;;;;;;;;;;;;;;19.18;58.80;101915.38;4972954;28;98261;-72
2021/09/08 03:44:58;;;;;;;;;;;;;;;19.18;58.97;101920.72;4973370;28;97127;-72
2021/09/08 03:47:25;;;;;;;;;;;;;;;19.18;58.80;101923.41;4971305;28;99387;-73
2021/09/08 03:49:51;;;;;;;;;;;;;;;19.07;59.56;101917.75;4968222;28;98846;-72
2021/09/08 03:52:18;;;;;;;;;;;;;;;19.30;58.92;101917.38;4972429;28;96714;-72
2021/09/08 03:54:45;;;;;;;;;;;;;;;19.09;59.66;101927.44;4972223;28;97328;-73
2021/09/08 03:57:12;;;;;;;;;;;;;;;19.12;59.29;101915.69;4971270;28;97855;-72
2021/09/08 03:59:39;;;;;;;;;;;;;;;19.02;59.65;101915.31;4960099;28;98835;-72
2021/09/08 04:02:06;;;;;;;;;;;;;;;19.06;59.30;101914.19;4971879;28;97862;-73
2021/09/08 04:04:32;;;;;;;;;;;;;;;19.03;59.20;101911.66;4971661;28;98461;-72
2021/09/08 04:06:59;;;;;;;;;;;;;;;19.11;59.05;101913.94;4970023;28;98984;-73
2021/09/08 04:09:25;;;;;;;;;;;;;;;18.96;59.62;101917.47;4972697;28;98166;-73
2021/09/08 04:11:51;;;;;;;;;;;;;;;18.99;59.52;101918.16;4969588;28;97512;-73
2021/09/08 04:14:19;;;;;;;;;;;;;;;19.08;59.28;101914.13;4972059;28;96923;-73
2021/09/08 04:16:45;;;;;;;;;;;;;;;19.00;59.29;101916.34;4970592;28;99012;-73
2021/09/08 04:19:11;;;;;;;;;;;;;;;19.04;59.09;101921.44;4972379;28;98842;-73
2021/09/08 04:21:37;;;;;;;;;;;;;;;19.00;59.14;101913.66;4969130;28;96895;-73
2021/09/08 04:24:04;;;;;;;;;;;;;;;19.05;58.91;101908.91;4971509;28;96843;-73
2021/09/08 04:26:30;;;;;;;;;;;;;;;19.08;58.93;101908.78;4970114;28;98970;-72
2021/09/08 04:28:56;;;;;;;;;;;;;;;19.02;59.34;101906.41;4949779;28;98755;-72
2021/09/08 04:31:24;;;;;;;;;;;;;;;18.98;59.47;101912.84;4973287;28;98020;-73
2021/09/08 04:33:50;;;;;;;;;;;;;;;19.02;59.36;101909.09;4971991;28;96834;-72
2021/09/08 04:36:17;;;;;;;;;;;;;;;18.99;59.19;101903.88;4970834;28;98938;-72
2021/09/08 04:38:45;;;;;;;;;;;;;;;18.99;59.26;101906.56;4970404;28;99336;-72
2021/09/08 04:41:11;;;;;;;;;;;;;;;19.05;58.95;101908.91;4971732;28;98591;-73
2021/09/08 04:43:37;;;;;;;;;;;;;;;19.02;59.08;101901.06;4966963;28;96866;-73
2021/09/08 04:46:03;;;;;;;;;;;;;;;19.11;58.68;101904.09;4972702;28;98187;-73
2021/09/08 04:48:31;;;;;;;;;;;;;;;19.17;58.50;101902.03;4972662;28;98839;-73
2021/09/08 04:50:57;;;;;;;;;;;;;;;19.17;58.38;101910.06;4970353;28;97981;-72
2021/09/08 04:53:24;;;;;;;;;;;;;;;19.15;58.73;101903.97;4971604;28;97119;-73
2021/09/08 04:55:50;;;;;;;;;;;;;;;19.20;58.26;101897.41;4972007;28;99439;-73
2021/09/08 04:58:16;;;;;;;;;;;;;;;19.14;58.46;101900.41;4971726;28;99299;-73
2021/09/08 05:00:42;;;;;;;;;;;;;;;19.25;58.30;101900.69;4966981;28;97539;-73
2021/09/08 05:03:09;;;;;;;;;;;;;;;19.23;58.25;101907.94;4968448;28;97976;-75
2021/09/08 05:05:36;;;;;;;;;;;;;;;19.39;57.98;101899.97;4972996;28;98951;-74
2021/09/08 05:08:03;;;;;;;;;;;;;;;19.50;57.55;101901.13;4977108;28;97735;-74
2021/09/08 05:10:29;;;;;;;;;;;;;;;19.40;57.68;101907.91;4971191;28;96977;-74
2021/09/08 05:12:55;;;;;;;;;;;;;;;19.50;58.00;101908.31;4970685;28;97124;-74
2021/09/08 05:15:21;;;;;;;;;;;;;;;19.48;57.49;101905.75;4975534;28;98926;-73
2021/09/08 05:17:48;;;;;;;;;;;;;;;19.61;57.50;101905.06;4973271;28;98792;-74
2021/09/08 05:20:15;;;;;;;;;;;;;;;19.75;57.28;101902.50;4972155;28;96865;-72
2021/09/08 05:22:42;;;;;;;;;;;;;;;19.82;57.13;101902.03;4965562;28;97934;-74
2021/09/08 05:25:09;;;;;;;;;;;;;;;19.84;56.91;101901.94;4972650;28;99100;-73
2021/09/08 05:27:35;;;;;;;;;;;;;;;20.01;56.32;101896.53;4968112;28;97522;-72
2021/09/08 05:30:02;;;;;;;;;;;;;;;20.05;56.67;101898.06;4971945;28;97221;-72
2021/09/08 05:32:28;;;;;;;;;;;;;;;20.09;56.30;101904.97;4969729;28;97208;-73
2021/09/08 05:34:56;;;;;;;;;;;;;;;20.25;55.72;101903.16;4971060;28;99223;-72
2021/09/08 05:37:23;;;;;;;;;;;;;;;20.37;55.64;101898.94;4973451;28;98814;-72
2021/09/08 05:39:50;;;;;;;;;;;;;;;20.40;55.22;101897.91;4971179;28;98210;-72
2021/09/08 05:42:17;;;;;;;;;;;;;;;20.35;55.15;101902.69;4975665;28;97969;-72
2021/09/08 05:44:43;;;;;;;;;;;;;;;20.54;54.92;101900.66;4966835;28;99197;-73
2021/09/08 05:47:09;;;;;;;;;;;;;;;20.51;55.18;101895.44;4966996;28;98852;-73
2021/09/08 05:49:35;;;;;;;;;;;;;;;20.63;55.23;101894.72;4969311;28;98746;-73
2021/09/08 05:52:02;;;;;;;;;;;;;;;20.71;54.75;101900.50;4971900;28;97699;-74
2021/09/08 05:54:29;;;;;;;;;;;;;;;20.66;54.63;101894.53;4968901;28;98862;-73
2021/09/08 05:56:57;;;;;;;;;;;;;;;20.85;54.41;101894.31;4972541;28;98932;-74
2021/09/08 05:59:23;;;;;;;;;;;;;;;21.00;54.06;101896.06;4973942;28;96918;-73
2021/09/08 06:01:49;;;;;;;;;;;;;;;21.17;53.46;101904.00;4970644;28;98099;-73
2021/09/08 06:04:15;;;;;;;;;;;;;;;21.15;53.84;101903.19;4969425;28;99251;-73
2021/09/08 06:06:42;;;;;;;;;;;;;;;21.19;53.79;101904.78;4968010;28;99214;-73
2021/09/08 06:09:08;;;;;;;;;;;;;;;21.39;53.28;101911.59;4974558;28;96965;-73
2021/09/08 06:11:34;;;;;;;;;;;;;;;21.33;53.48;101907.44;4975528;28;97035;-73
2021/09/08 06:14:02;;;;;;;;;;;;;;;21.46;52.80;101907.56;4971447;28;98958;-74
2021/09/08 06:16:28;;;;;;;;;;;;;;;21.61;52.20;101906.56;4973796;28;99165;-73
2021/09/08 06:18:54;;;;;;;;;;;;;;;21.74;51.85;101901.28;4974776;28;97293;-74
2021/09/08 06:21:21;;;;;;;;;;;;;;;21.93;51.26;101909.03;4969296;28;96817;-75
2021/09/08 06:23:47;;;;;;;;;;;;;;;21.96;51.00;101903.50;4975271;28;99394;-75
2021/09/08 06:26:13;;;;;;;;;;;;;;;22.12;50.69;101898.84;4973831;28;100864;-73
2021/09/08 06:28:40;;;;;;;;;;;;;;;22.17;50.40;101904.78;4967640;28;97098;-73
2021/09/08 06:31:10;;;;;;;;;;;;;;;22.31;49.86;101898.50;4968943;28;98616;-73
2021/09/08 06:33:36;;;;;;;;;;;;;;;22.45;49.34;101901.97;4966613;28;99124;-74
2021/09/08 06:36:02;;;;;;;;;;;;;;;22.39;49.75;101897.00;4980531;28;98859;-73
2021/09/08 06:38:29;;;;;;;;;;;;;;;22.49;49.26;101894.56;4966081;28;100573;-73
2021/09/08 06:40:58;;;;;;;;;;;;;;;22.57;48.36;101892.22;4967536;28;98900;-72
2021/09/08 06:43:24;;;;;;;;;;;;;;;22.78;48.10;101889.91;4964437;28;98971;-72
2021/09/08 06:45:51;;;;;;;;;;;;;;;22.85;48.15;101888.53;4971286;28;98712;-72
2021/09/08 06:48:18;;;;;;;;;;;;;;;22.94;47.93;101893.28;4972163;28;97276;-73
2021/09/08 06:50:45;;;;;;;;;;;;;;;23.33;46.77;101886.94;4970104;28;97069;-73
2021/09/08 06:53:11;;;;;;;;;;;;;;;23.84;45.86;101887.75;4972619;28;99271;-73
2021/09/08 06:55:37;;;;;;;;;;;;;;;24.01;45.44;101889.22;4971290;28;98762;-71
2021/09/08 06:58:03;;;;;;;;;;;;;;;23.84;45.66;101887.75;4969288;28;97651;-73
2021/09/08 07:00:30;;;;;;;;;;;;;;;23.67;45.97;101893.50;4974222;28;99231;-73
2021/09/08 07:02:56;;;;;;;;;;;;;;;23.60;46.13;101881.44;4968471;28;99266;-72
2021/09/08 07:05:24;;;;;;;;;;;;;;;23.64;46.44;101885.63;4974264;28;98874;-72
2021/09/08 07:07:51;;;;;;;;;;;;;;;23.65;45.64;101884.66;4970880;28;97479;-73
2021/09/08 07:10:17;;;;;;;;;;;;;;;23.71;44.64;101889.59;4973624;28;97351;-73
2021/09/08 07:12:44;;;;;;;;;;;;;;;23.53;44.73;101889.09;4972526;28;99478;-72
2021/09/08 07:15:10;;;;;;;;;;;;;;;23.63;44.31;101883.94;4974517;28;99215;-72
2021/09/08 07:17:37;;;;;;;;;;;;;;;23.89;43.69;101882.03;4967481;28;97290;-72
2021/09/08 07:20:03;;;;;;;;;;;;;;;23.98;43.26;101887.59;4969588;28;96925;-73
2021/09/08 07:22:31;;;;;;;;;;;;;;;24.16;42.79;101878.13;4971356;28;98905;-73
2021/09/08 07:24:58;;;;;;;;;;;;;;;24.23;42.58;101884.81;4962284;28;98192;-72
2021/09/08 07:27:25;;;;;;;;;;;;;;;24.43;42.16;101882.44;4965157;28;97158;-73
2021/09/08 07:29:51;;;;;;;;;;;;;;;24.46;42.22;101880.41;4964540;28;96954;-72
2021/09/08 07:32:18;;;;;;;;;;;;;;;24.76;41.40;101879.88;4965615;28;99300;-72
2021/09/08 07:34:44;;;;;;;;;;;;;;;24.62;42.19;101880.06;4963480;28;98851;-73
2021/09/08 07:37:10;;;;;;;;;;;;;;;24.73;41.70;101877.44;4964136;28;97604;-73
2021/09/08 07:39:38;;;;;;;;;;;;;;;24.71;41.78;101881.22;4967544;28;98786;-72
2021/09/08 07:42:04;;;;;;;;;;;;;;;24.86;41.38;101883.59;4964260;28;99290;-72
2021/09/08 07:44:31;;;;;;;;;;;;;;;24.83;41.13;101878.44;4967350;28;99351;-73
2021/09/08 07:46:57;;;;;;;;;;;;;;;25.04;40.66;101880.47;4967368;28;97789;-72
2021/09/08 07:49:23;;;;;;;;;;;;;;;25.34;39.46;101873.50;4966719;28;97543;-71
2021/09/08 07:51:50;;;;;;;;;;;;;;;25.56;39.07;101864.50;4962457;28;98639;-72
2021/09/08 07:54:16;;;;;;;;;;;;;;;25.16;39.40;101874.97;4963798;28;99269;-73
2021/09/08 07:56:44;;;;;;;;;;;;;;;25.54;38.53;101873.72;4968094;28;97310;-73
2021/09/08 07:59:11;;;;;;;;;;;;;;;25.48;38.95;101866.97;4965547;28;98083;-72
2021/09/08 08:01:37;;;;;;;;;;;;;;;26.24;37.15;101863.47;4970090;28;99739;-73
2021/09/08 08:04:03;;;;;;;;;;;;;;;25.86;38.59;101866.63;4955265;28;98679;-70
2021/09/08 08:06:29;;;;;;;;;;;;;;;25.91;38.13;101866.22;4968757;28;98953;-72
2021/09/08 08:08:56;;;;;;;;;;;;;;;25.72;38.44;101861.47;4970550;28;98803;-71
2021/09/08 08:11:22;;;;;;;;;;;;;;;26.22;37.41;101857.28;4968378;28;98840;-70
2021/09/08 08:13:50;;;;;;;;;;;;;;;26.40;36.28;101861.16;4972761;28;98764;-72
2021/09/08 08:16:16;;;;;;;;;;;;;;;26.34;36.85;101861.69;4967336;28;98418;-72
2021/09/08 08:18:42;;;;;;;;;;;;;;;26.54;36.70;101857.28;4971887;28;96925;-72
2021/09/08 08:21:09;;;;;;;;;;;;;;;26.00;37.86;101860.03;4959776;28;98894;-72
2021/09/08 08:23:35;;;;;;;;;;;;;;;25.44;39.05;101853.81;4963586;28;99444;-71
2021/09/08 08:26:01;;;;;;;;;;;;;;;25.98;38.32;101856.63;4960590;28;97283;-73
2021/09/08 08:28:30;;;;;;;;;;;;;;;26.18;38.27;101859.38;4965981;28;98736;-72
2021/09/08 08:30:58;;;;;;;;;;;;;;;26.30;37.49;101854.81;4968130;28;99433;-73
2021/09/08 08:33:25;;;;;;;;;;;;;;;26.10;38.35;101855.59;4972187;28;99246;-73
2021/09/08 08:35:51;;;;;;;;;;;;;;;26.40;38.18;101853.03;4970020;28;97395;-71
2021/09/08 08:38:17;;;;;;;;;;;;;;;26.48;37.74;101855.97;4970323;28;97809;-71
2021/09/08 08:40:44;;;;;;;;;;;;;;;26.36;38.30;101850.72;4972681;28;99272;-71
2021/09/08 08:43:10;;;;;;;;;;;;;;;26.10;39.20;101847.47;4970628;28;97616;-72
2021/09/08 08:45:37;;;;;;;;;;;;;;;26.10;39.17;101850.19;4968628;28;98754;-72
2021/09/08 08:48:05;;;;;;;;;;;;;;;26.41;38.18;101849.34;4970002;28;96973;-72
2021/09/08 08:50:31;;;;;;;;;;;;;;;26.30;38.63;101852.09;4972537;28;98813;-72
2021/09/08 08:52:58;;;;;;;;;;;;;;;26.46;38.87;101840.81;4970267;28;98865;-72
2021/09/08 08:55:25;;;;;;;;;;;;;;;26.53;38.59;101847.44;4971148;28;96819;-71
2021/09/08 08:57:51;;;;;;;;;;;;;;;26.44;38.85;101843.66;4968892;28;96921;-71
2021/09/08 09:00:18;;;;;;;;;;;;;;;26.26;39.01;101847.91;4964760;28;99419;-73
2021/09/08 09:02:48;;;;;;;;;;;;;;;26.91;37.98;101849.59;4967817;28;98753;-73
2021/09/08 09:05:28;;;;;;;;;;;;;;;26.86;37.71;101854.50;4966771;28;96848;-71
2021/09/08 09:07:55;;;;;;;;;;;;;;;27.12;37.13;101853.13;4968658;28;97413;-71
2021/09/08 09:10:21;;;;;;;;;;;;;;;26.76;37.38;101843.63;4969469;28;98893;-72
2021/09/08 09:12:47;;;;;;;;;;;;;;;26.78;37.77;101843.50;4968675;28;98941;-73
2021/09/08 09:15:15;;;;;;;;;;;;;;;26.96;37.11;101839.22;4966536;28;97375;-72
2021/09/08 09:17:41;;;;;;;;;;;;;;;27.33;36.34;101836.81;4971114;28;96940;-73
2021/09/08 09:20:09;;;;;;;;;;;;;;;26.66;37.23;101836.38;4959756;28;99053;-72
2021/09/08 09:22:38;;;;;;;;;;;;;;;27.30;36.22;101831.69;4965474;28;99965;-72
2021/09/08 09:25:05;;;;;;;;;;;;;;;26.64;37.96;101828.41;4968364;28;96858;-72
2021/09/08 09:27:36;;;;;;;;;;;;;;;27.21;36.86;101827.06;4967849;28;98485;-71
2021/09/08 09:30:08;;;;;;;;;;;;;;;27.54;36.31;101831.34;4968101;28;98658;-72
2021/09/08 09:32:35;;;;;;;;;;;;;;;26.74;37.25;101823.03;4964377;28;100597;-71
2021/09/08 09:35:01;;;;;;;;;;;;;;;27.48;36.13;101819.16;4968849;28;97638;-72
2021/09/08 09:37:31;;;;;;;;;;;;;;;27.59;35.10;101812.78;4971899;28;98037;-71
2021/09/08 09:40:01;;;;;;;;;;;;;;;27.72;35.04;101816.09;4967860;28;98875;-71
2021/09/08 09:42:31;;;;;;;;;;;;;;;27.24;36.17;101821.38;4963833;28;98840;-71
2021/09/08 09:44:59;;;;;;;;;;;;;;;27.68;35.40;101801.97;4962374;28;98039;-72
2021/09/08 09:47:26;;;;;;;;;;;;;;;27.82;34.71;101811.56;4970027;28;96989;-73
2021/09/08 09:49:53;;;;;;;;;;;;;;;28.00;34.79;101804.44;4969942;28;99356;-73
2021/09/08 09:52:23;;;;;;;;;;;;;;;27.96;35.23;101808.41;4972764;28;97745;-74
2021/09/08 09:54:49;;;;;;;;;;;;;;;27.75;34.50;101797.69;4966065;28;97010;-73
2021/09/08 09:57:17;;;;;;;;;;;;;;;27.96;34.43;101802.16;4951880;28;98857;-74
2021/09/08 09:59:45;;;;;;;;;;;;;;;27.97;34.51;101787.53;4973772;28;98936;-71
2021/09/08 10:02:12;;;;;;;;;;;;;;;28.07;34.74;101792.00;4973906;28;98840;-72
2021/09/08 10:04:38;;;;;;;;;;;;;;;28.07;34.61;101785.72;4975553;28;96845;-73
2021/09/08 10:07:06;;;;;;;;;;;;;;;27.74;35.29;101789.69;4973614;28;98611;-73
2021/09/08 10:09:35;;;;;;;;;;;;;;;28.14;34.94;101779.59;4972514;28;98802;-72
2021/09/08 10:12:02;;;;;;;;;;;;;;;28.00;34.87;101777.28;4972254;28;98968;-72
2021/09/08 10:14:31;;;;;;;;;;;;;;;28.13;34.90;101769.69;4971261;28;97979;-72
2021/09/08 10:17:01;;;;;;;;;;;;;;;27.81;34.89;101771.81;4967894;28;96925;-71
2021/09/08 10:19:28;;;;;;;;;;;;;;;27.79;34.43;101764.81;4974142;28;98040;-72
2021/09/08 10:22:04;;;;;;;;;;;;;;;27.95;34.37;101757.84;4974611;28;98858;-72
2021/09/08 10:24:31;;;;;;;;;;;;;;;28.05;34.77;101758.69;4970487;28;98782;-72
2021/09/08 10:26:57;;;;;;;;;;;;;;;27.84;34.63;101757.94;4971394;28;97140;-72
2021/09/08 10:29:26;;;;;;;;;;;;;;;27.87;34.91;101756.81;4973731;28;98823;-70
2021/09/08 10:31:54;;;;;;;;;;;;;;;27.64;35.08;101754.34;4972724;28;98850;-72
2021/09/08 10:34:21;;;;;;;;;;;;;;;27.86;34.52;101764.09;4973374;28;97133;-71
2021/09/08 10:36:47;;;;;;;;;;;;;;;27.37;35.28;101757.69;4983832;28;97213;-73
2021/09/08 10:39:16;;;;;;;;;;;;;;;27.59;34.90;101747.63;4978245;28;98271;-71
2021/09/08 10:41:44;;;;;;;;;;;;;;;27.50;35.84;101745.75;4970816;28;99220;-71
2021/09/08 10:44:12;;;;;;;;;;;;;;;27.58;35.76;101746.78;4967728;28;97188;-72
2021/09/08 10:46:55;;;;;;;;;;;;;;;27.46;36.24;101744.28;4967463;28;98947;-72
2021/09/08 10:49:40;;;;;;;;;;;;;;;27.60;36.33;101743.91;4965984;28;99241;-71
2021/09/08 10:52:08;;;;;;;;;;;;;;;27.73;36.29;101741.78;4973143;28;99393;-71
2021/09/08 10:54:54;;;;;;;;;;;;;;;27.81;35.55;101733.81;4972476;28;97237;-71
2021/09/08 10:57:35;;;;;;;;;;;;;;;27.75;35.65;101737.94;4968178;28;98736;-72
2021/09/08 11:00:02;;;;;;;;;;;;;;;27.41;36.25;101742.00;4971696;28;98880;-71
2021/09/08 11:02:30;;;;;;;;;;;;;;;27.47;35.47;101730.59;4969643;28;98180;-72
2021/09/08 11:04:59;;;;;;;;;;;;;;;27.19;36.14;101724.06;4968721;28;97136;-72
2021/09/08 11:07:25;;;;;;;;;;;;;;;27.46;35.81;101725.28;4969758;28;97055;-72
2021/09/08 11:09:51;;;;;;;;;;;;;;;27.72;36.11;101724.63;4971927;28;98952;-72
2021/09/08 11:12:17;;;;;;;;;;;;;;;27.60;36.20;101724.91;4971856;28;99211;-72
2021/09/08 11:14:47;;;;;;;;;;;;;;;27.59;36.02;101723.19;4971920;28;97262;-73
2021/09/08 11:17:18;;;;;;;;;;;;;;;27.81;35.35;101717.50;4968476;28;96952;-72
2021/09/08 11:19:55;;;;;;;;;;;;;;;27.54;36.31;101722.78;4972519;28;99684;-74
2021/09/08 11:22:21;;;;;;;;;;;;;;;27.80;35.17;101715.78;4966310;28;98904;-72
2021/09/08 11:25:00;;;;;;;;;;;;;;;27.37;36.30;101708.00;4969994;28;97301;-73
2021/09/08 11:27:27;;;;;;;;;;;;;;;27.88;35.87;101713.22;4970691;28;98540;-72
2021/09/08 11:30:00;;;;;;;;;;;;;;;27.72;35.75;101712.91;4972024;28;99356;-72
2021/09/08 11:32:27;;;;;;;;;;;;;;;27.86;35.48;101708.94;4971844;28;98945;-73
2021/09/08 11:34:55;;;;;;;;;;;;;;;27.38;36.30;101705.13;4972059;28;96885;-72
2021/09/08 11:37:21;;;;;;;;;;;;;;;27.85;36.01;101708.06;4972368;28;96880;-72
2021/09/08 11:39:48;;;;;;;;;;;;;;;27.24;36.94;101699.25;4973204;28;98863;-72
2021/09/08 11:42:15;;;;;;;;;;;;;;;27.83;35.91;101696.47;4970199;28;99368;-71
2021/09/08 11:44:41;;;;;;;;;;;;;;;27.82;36.29;101700.22;4967633;28;96770;-73
2021/09/08 11:47:14;;;;;;;;;;;;;;;27.51;36.33;101694.00;4972691;28;96833;-73
2021/09/08 11:49:40;;;;;;;;;;;;;;;27.93;35.51;101685.63;4974063;28;98997;-73
2021/09/08 11:52:15;;;;;;;;;;;;;;;27.94;35.52;101696.34;4973154;28;99201;-73
2021/09/08 11:54:46;;;;;;;;;;;;;;;28.10;35.44;101685.75;4971143;28;96909;-72
2021/09/08 11:57:14;;;;;;;;;;;;;;;27.81;35.24;101684.06;4967412;28;97758;-72
2021/09/08 11:59:42;;;;;;;;;;;;;;;28.09;34.75;101684.03;4969590;28;98658;-71
2021/09/08 12:02:08;;;;;;;;;;;;;;;27.94;34.96;101696.34;4966236;28;99101;-72
2021/09/08 12:04:34;;;;;;;;;;;;;;;27.95;34.79;101687.22;4970763;28;97835;-71
2021/09/08 12:07:02;;;;;;;;;;;;;;;27.69;35.26;101676.06;4973002;28;97840;-72
2021/09/08 12:09:30;;;;;;;;;;;;;;;28.07;34.80;101679.75;4970763;28;99352;-73
2021/09/08 12:11:57;;;;;;;;;;;;;;;27.98;35.33;101676.03;4971449;28;99178;-72
2021/09/08 12:14:24;;;;;;;;;;;;;;;27.69;34.79;101678.78;4968119;28;97147;-72
2021/09/08 12:16:52;;;;;;;;;;;;;;;28.05;34.13;101677.19;4970762;28;98952;-72
2021/09/08 12:19:19;;;;;;;;;;;;;;;27.76;34.63;101673.63;4966518;28;99013;-72
2021/09/08 12:21:46;;;;;;;;;;;;;;;28.05;33.39;101668.16;4968503;28;99134;-73
2021/09/08 12:24:22;;;;;;;;;;;;;;;28.30;32.94;101656.69;4970131;28;96853;-73
2021/09/08 12:26:50;;;;;;;;;;;;;;;28.11;33.55;101657.56;4964125;28;98019;-73
2021/09/08 12:29:17;;;;;;;;;;;;;;;28.22;34.17;101651.16;4965917;28;97903;-72
2021/09/08 12:31:47;;;;;;;;;;;;;;;28.27;34.35;101653.44;4967813;28;98813;-72
2021/09/08 12:34:14;;;;;;;;;;;;;;;28.44;32.95;101644.50;4970754;28;96955;-72
2021/09/08 12:36:40;;;;;;;;;;;;;;;28.24;33.15;101643.69;4967011;28;97271;-72